sensor_id;sensor_type;location;lat;lon;timestamp;pressure;altitude;pressure_sealevel;temperature;humidity
56514;BME280;62152;52.078;8.414;2022-11-15T00:00:28;99581.22;;;18.62;55.53
56514;BME280;62152;52.078;8.414;2022-11-15T00:02:09;99578.47;;;18.62;55.37
56514;BME280;62152;52.078;8.414;2022-11-15T00:03:51;99582.41;;;18.61;55.70
56514;BME280;62152;52.078;8.414;2022-11-15T00:05:34;99585.16;;;18.61;55.61
56514;BME280;62152;52.078;8.414;2022-11-15T00:07:15;99583.19;;;18.62;55.45
56514;BME280;62152;52.078;8.414;2022-11-15T00:08:58;99576.91;;;18.61;55.49
56514;BME280;62152;52.078;8.414;2022-11-15T00:10:39;99574.16;;;18.61;55.69
56514;BME280;62152;52.078;8.414;2022-11-15T00:12:23;99575.72;;;18.62;55.51
56514;BME280;62152;52.078;8.414;2022-11-15T00:14:04;99572.19;;;18.62;55.57
56514;BME280;62152;52.078;8.414;2022-11-15T00:15:45;99580.44;;;18.62;55.68
56514;BME280;62152;52.078;8.414;2022-11-15T00:17:26;99572.97;;;18.62;55.76
56514;BME280;62152;52.078;8.414;2022-11-15T00:19:07;99582.78;;;18.63;55.48
56514;BME280;62152;52.078;8.414;2022-11-15T00:20:48;99576.91;;;18.61;55.50
56514;BME280;62152;52.078;8.414;2022-11-15T00:22:31;99574.16;;;18.61;55.68
56514;BME280;62152;52.078;8.414;2022-11-15T00:24:12;99579.66;;;18.61;55.54
56514;BME280;62152;52.078;8.414;2022-11-15T00:25:57;99576.47;;;18.59;55.60
56514;BME280;62152;52.078;8.414;2022-11-15T00:27:40;99572.59;;;18.60;55.55
56514;BME280;62152;52.078;8.414;2022-11-15T00:29:21;99576.13;;;18.61;55.61
56514;BME280;62152;52.078;8.414;2022-11-15T00:31:04;99576.13;;;18.61;55.78
56514;BME280;62152;52.078;8.414;2022-11-15T00:32:46;99576.91;;;18.61;55.77
56514;BME280;62152;52.078;8.414;2022-11-15T00:34:27;99571.41;;;18.61;55.53
56514;BME280;62152;52.078;8.414;2022-11-15T00:36:09;99562.38;;;18.61;55.71
56514;BME280;62152;52.078;8.414;2022-11-15T00:37:52;99561.22;;;18.62;55.68
56514;BME280;62152;52.078;8.414;2022-11-15T00:39:33;99554.94;;;18.61;55.73
56514;BME280;62152;52.078;8.414;2022-11-15T00:41:14;99560.41;;;18.61;55.57
56514;BME280;62152;52.078;8.414;2022-11-15T00:42:58;99557.69;;;18.61;55.76
56514;BME280;62152;52.078;8.414;2022-11-15T00:44:40;99559.63;;;18.61;55.81
56514;BME280;62152;52.078;8.414;2022-11-15T00:46:21;99559.63;;;18.61;55.84
56514;BME280;62152;52.078;8.414;2022-11-15T00:48:02;99559.63;;;18.61;55.73
56514;BME280;62152;52.078;8.414;2022-11-15T00:49:43;99552.19;;;18.61;55.66
56514;BME280;62152;52.078;8.414;2022-11-15T00:51:24;99551.41;;;18.61;55.84
56514;BME280;62152;52.078;8.414;2022-11-15T00:53:05;99550.22;;;18.62;55.88
56514;BME280;62152;52.078;8.414;2022-11-15T00:54:46;99543.94;;;18.61;55.89
56514;BME280;62152;52.078;8.414;2022-11-15T00:56:27;99543.16;;;18.61;55.71
56514;BME280;62152;52.078;8.414;2022-11-15T00:58:10;99547.88;;;18.60;55.71
56514;BME280;62152;52.078;8.414;2022-11-15T00:59:51;99547.47;;;18.62;55.84
56514;BME280;62152;52.078;8.414;2022-11-15T01:01:32;99537.28;;;18.62;55.98
56514;BME280;62152;52.078;8.414;2022-11-15T01:03:13;99532.97;;;18.61;55.91
56514;BME280;62152;52.078;8.414;2022-11-15T01:04:54;99534.91;;;18.61;55.87
56514;BME280;62152;52.078;8.414;2022-11-15T01:06:35;99532.97;;;18.61;55.64
56514;BME280;62152;52.078;8.414;2022-11-15T01:08:16;99526.69;;;18.61;55.70
56514;BME280;62152;52.078;8.414;2022-11-15T01:09:57;99528.63;;;18.60;55.76
56514;BME280;62152;52.078;8.414;2022-11-15T01:11:38;99524.72;;;18.61;55.81
56514;BME280;62152;52.078;8.414;2022-11-15T01:13:22;99532.97;;;18.61;55.88
56514;BME280;62152;52.078;8.414;2022-11-15T01:15:04;99531.38;;;18.60;55.77
56514;BME280;62152;52.078;8.414;2022-11-15T01:16:46;99529.44;;;18.61;55.66
56514;BME280;62152;52.078;8.414;2022-11-15T01:18:27;99529.44;;;18.61;55.91
56514;BME280;62152;52.078;8.414;2022-11-15T01:20:09;99521.97;;;18.61;55.71
56514;BME280;62152;52.078;8.414;2022-11-15T01:21:51;99526.69;;;18.61;55.83
56514;BME280;62152;52.078;8.414;2022-11-15T01:23:32;99521.19;;;18.61;55.77
56514;BME280;62152;52.078;8.414;2022-11-15T01:25:13;99527.47;;;18.61;56.04
56514;BME280;62152;52.078;8.414;2022-11-15T01:26:54;99521.97;;;18.61;55.81
56514;BME280;62152;52.078;8.414;2022-11-15T01:28:39;99521.97;;;18.61;55.80
56514;BME280;62152;52.078;8.414;2022-11-15T01:30:21;99519.59;;;18.59;55.82
56514;BME280;62152;52.078;8.414;2022-11-15T01:32:02;99510.19;;;18.61;55.81
56514;BME280;62152;52.078;8.414;2022-11-15T01:33:44;99509.41;;;18.60;55.99
56514;BME280;62152;52.078;8.414;2022-11-15T01:35:25;99519.22;;;18.61;55.87
56514;BME280;62152;52.078;8.414;2022-11-15T01:37:06;99509.03;;;18.62;55.90
56514;BME280;62152;52.078;8.414;2022-11-15T01:38:52;99509.41;;;18.60;55.78
56514;BME280;62152;52.078;8.414;2022-11-15T01:40:33;99503.94;;;18.60;55.97
56514;BME280;62152;52.078;8.414;2022-11-15T01:42:15;99505.50;;;18.61;56.08
56514;BME280;62152;52.078;8.414;2022-11-15T01:46:26;99498.44;;;18.60;56.03
56514;BME280;62152;52.078;8.414;2022-11-15T01:48:10;99492.13;;;18.59;55.95
56514;BME280;62152;52.078;8.414;2022-11-15T01:49:57;99494.50;;;18.61;56.13
56514;BME280;62152;52.078;8.414;2022-11-15T01:51:42;99488.22;;;18.61;56.00
56514;BME280;62152;52.078;8.414;2022-11-15T01:53:26;99492.94;;;18.60;56.19
56514;BME280;62152;52.078;8.414;2022-11-15T01:55:14;99478.03;;;18.61;56.05
56514;BME280;62152;52.078;8.414;2022-11-15T01:57:02;99487.44;;;18.60;55.91
56514;BME280;62152;52.078;8.414;2022-11-15T01:58:47;99484.69;;;18.60;56.02
56514;BME280;62152;52.078;8.414;2022-11-15T02:00:32;99481.94;;;18.60;55.87
56514;BME280;62152;52.078;8.414;2022-11-15T02:02:13;99483.53;;;18.61;56.12
56514;BME280;62152;52.078;8.414;2022-11-15T02:03:59;99482.75;;;18.61;56.09
56514;BME280;62152;52.078;8.414;2022-11-15T02:05:44;99481.94;;;18.60;56.20
56514;BME280;62152;52.078;8.414;2022-11-15T02:07:26;99480.34;;;18.59;56.02
56514;BME280;62152;52.078;8.414;2022-11-15T02:09:11;99471.75;;;18.61;56.07
56514;BME280;62152;52.078;8.414;2022-11-15T02:10:53;99481.13;;;18.59;55.94
56514;BME280;62152;52.078;8.414;2022-11-15T02:12:34;99480.78;;;18.61;55.96
56514;BME280;62152;52.078;8.414;2022-11-15T02:14:19;99484.31;;;18.62;55.95
56514;BME280;62152;52.078;8.414;2022-11-15T02:16:15;99477.25;;;18.61;56.03
56514;BME280;62152;52.078;8.414;2022-11-15T02:18:17;99472.53;;;18.61;56.15
56514;BME280;62152;52.078;8.414;2022-11-15T02:20:42;99473.31;;;18.62;56.23
56514;BME280;62152;52.078;8.414;2022-11-15T02:22:42;99474.09;;;18.62;56.32
56514;BME280;62152;52.078;8.414;2022-11-15T02:27:29;99472.91;;;18.59;56.09
56514;BME280;62152;52.078;8.414;2022-11-15T02:29:36;99472.13;;;18.59;56.10
56514;BME280;62152;52.078;8.414;2022-11-15T02:31:48;99464.66;;;18.59;56.06
56514;BME280;62152;52.078;8.414;2022-11-15T02:33:52;99461.53;;;18.61;56.27
56514;BME280;62152;52.078;8.414;2022-11-15T02:35:46;99459.16;;;18.59;56.42
56514;BME280;62152;52.078;8.414;2022-11-15T02:37:45;99469.00;;;18.61;56.15
56514;BME280;62152;52.078;8.414;2022-11-15T02:39:39;99463.50;;;18.61;56.32
56514;BME280;62152;52.078;8.414;2022-11-15T02:41:36;99466.25;;;18.61;56.47
56514;BME280;62152;52.078;8.414;2022-11-15T02:43:30;99473.31;;;18.62;56.24
56514;BME280;62152;52.078;8.414;2022-11-15T02:45:21;99470.97;;;18.60;56.26
56514;BME280;62152;52.078;8.414;2022-11-15T02:47:15;99465.47;;;18.60;56.32
56514;BME280;62152;52.078;8.414;2022-11-15T02:48:58;99465.47;;;18.60;56.21
56514;BME280;62152;52.078;8.414;2022-11-15T02:50:39;99464.66;;;18.59;56.19
56514;BME280;62152;52.078;8.414;2022-11-15T02:52:23;99467.81;;;18.62;56.39
56514;BME280;62152;52.078;8.414;2022-11-15T02:54:05;99459.16;;;18.59;56.38
56514;BME280;62152;52.078;8.414;2022-11-15T02:55:50;99458.03;;;18.61;56.26
56514;BME280;62152;52.078;8.414;2022-11-15T02:57:43;99462.34;;;18.62;56.33
56514;BME280;62152;52.078;8.414;2022-11-15T03:00:01;99452.88;;;18.59;56.35
56514;BME280;62152;52.078;8.414;2022-11-15T03:01:59;99458.38;;;18.59;56.35
56514;BME280;62152;52.078;8.414;2022-11-15T03:04:05;99449.78;;;18.61;56.15
56514;BME280;62152;52.078;8.414;2022-11-15T03:06:08;99454.50;;;18.60;56.34
56514;BME280;62152;52.078;8.414;2022-11-15T03:08:06;99451.75;;;18.60;56.35
56514;BME280;62152;52.078;8.414;2022-11-15T03:09:57;99451.75;;;18.60;56.16
56514;BME280;62152;52.078;8.414;2022-11-15T03:11:48;99455.28;;;18.61;56.13
56514;BME280;62152;52.078;8.414;2022-11-15T03:13:43;99453.31;;;18.61;56.39
56514;BME280;62152;52.078;8.414;2022-11-15T03:15:38;99454.50;;;18.60;56.12
56514;BME280;62152;52.078;8.414;2022-11-15T03:17:30;99454.50;;;18.60;56.35
56514;BME280;62152;52.078;8.414;2022-11-15T03:19:25;99454.50;;;18.60;56.27
56514;BME280;62152;52.078;8.414;2022-11-15T03:21:15;99458.03;;;18.61;56.40
56514;BME280;62152;52.078;8.414;2022-11-15T03:23:06;99452.53;;;18.61;56.35
56514;BME280;62152;52.078;8.414;2022-11-15T03:24:53;99467.81;;;18.62;56.40
56514;BME280;62152;52.078;8.414;2022-11-15T03:26:41;99459.97;;;18.60;56.35
56514;BME280;62152;52.078;8.414;2022-11-15T03:28:34;99458.38;;;18.59;56.46
56514;BME280;62152;52.078;8.414;2022-11-15T03:30:20;99461.53;;;18.61;56.49
56514;BME280;62152;52.078;8.414;2022-11-15T03:32:06;99458.81;;;18.61;56.24
56514;BME280;62152;52.078;8.414;2022-11-15T03:33:50;99459.97;;;18.60;56.34
56514;BME280;62152;52.078;8.414;2022-11-15T03:35:42;99463.50;;;18.61;56.34
56514;BME280;62152;52.078;8.414;2022-11-15T03:37:33;99456.06;;;18.61;56.42
56514;BME280;62152;52.078;8.414;2022-11-15T03:39:20;99464.28;;;18.61;56.48
56514;BME280;62152;52.078;8.414;2022-11-15T03:41:07;99466.25;;;18.61;56.40
56514;BME280;62152;52.078;8.414;2022-11-15T03:43:04;99461.91;;;18.59;56.25
56514;BME280;62152;52.078;8.414;2022-11-15T03:44:57;99460.75;;;18.61;56.54
56514;BME280;62152;52.078;8.414;2022-11-15T03:46:49;99465.47;;;18.60;56.27
56514;BME280;62152;52.078;8.414;2022-11-15T03:48:46;99462.72;;;18.60;56.54
56514;BME280;62152;52.078;8.414;2022-11-15T03:50:29;99467.81;;;18.62;56.18
56514;BME280;62152;52.078;8.414;2022-11-15T03:52:17;99469.00;;;18.61;56.43
56514;BME280;62152;52.078;8.414;2022-11-15T03:54:02;99467.03;;;18.61;56.56
56514;BME280;62152;52.078;8.414;2022-11-15T03:55:43;99465.06;;;18.62;56.54
56514;BME280;62152;52.078;8.414;2022-11-15T03:57:25;99461.53;;;18.61;56.48
56514;BME280;62152;52.078;8.414;2022-11-15T03:59:05;99456.84;;;18.62;56.50
56514;BME280;62152;52.078;8.414;2022-11-15T04:00:46;99460.75;;;18.61;56.57
56514;BME280;62152;52.078;8.414;2022-11-15T04:02:27;99463.13;;;18.62;56.58
56514;BME280;62152;52.078;8.414;2022-11-15T04:04:08;99461.53;;;18.61;56.49
56514;BME280;62152;52.078;8.414;2022-11-15T04:05:49;99464.28;;;18.61;56.26
56514;BME280;62152;52.078;8.414;2022-11-15T04:07:33;99464.69;;;18.63;56.32
56514;BME280;62152;52.078;8.414;2022-11-15T04:09:14;99456.84;;;18.62;56.39
56514;BME280;62152;52.078;8.414;2022-11-15T04:10:55;99453.31;;;18.61;56.49
56514;BME280;62152;52.078;8.414;2022-11-15T04:12:38;99459.59;;;18.62;56.29
56514;BME280;62152;52.078;8.414;2022-11-15T04:14:19;99461.53;;;18.61;56.23
56514;BME280;62152;52.078;8.414;2022-11-15T04:16:00;99460.75;;;18.61;56.47
56514;BME280;62152;52.078;8.414;2022-11-15T04:17:43;99454.09;;;18.62;56.45
56514;BME280;62152;52.078;8.414;2022-11-15T04:19:25;99459.59;;;18.62;56.43
56514;BME280;62152;52.078;8.414;2022-11-15T04:21:07;99457.63;;;18.62;56.26
56514;BME280;62152;52.078;8.414;2022-11-15T04:22:52;99467.03;;;18.61;56.54
56514;BME280;62152;52.078;8.414;2022-11-15T04:24:33;99459.16;;;18.59;56.31
56514;BME280;62152;52.078;8.414;2022-11-15T04:26:17;99456.06;;;18.61;56.50
56514;BME280;62152;52.078;8.414;2022-11-15T04:28:01;99460.38;;;18.62;56.48
56514;BME280;62152;52.078;8.414;2022-11-15T04:29:42;99464.28;;;18.61;56.54
56514;BME280;62152;52.078;8.414;2022-11-15T04:31:23;99453.69;;;18.63;56.48
56514;BME280;62152;52.078;8.414;2022-11-15T04:33:04;99447.03;;;18.64;56.28
56514;BME280;62152;52.078;8.414;2022-11-15T04:34:45;99453.69;;;18.63;56.41
56514;BME280;62152;52.078;8.414;2022-11-15T04:36:26;99460.75;;;18.64;56.52
56514;BME280;62152;52.078;8.414;2022-11-15T04:38:10;99459.19;;;18.63;56.59
56514;BME280;62152;52.078;8.414;2022-11-15T04:39:52;99456.44;;;18.63;56.45
56514;BME280;62152;52.078;8.414;2022-11-15T04:41:33;99461.94;;;18.63;56.59
56514;BME280;62152;52.078;8.414;2022-11-15T04:43:14;99459.59;;;18.62;56.41
56514;BME280;62152;52.078;8.414;2022-11-15T04:44:55;99454.88;;;18.62;56.29
56514;BME280;62152;52.078;8.414;2022-11-15T04:46:36;99458.41;;;18.63;56.49
56514;BME280;62152;52.078;8.414;2022-11-15T04:48:16;99463.13;;;18.62;56.45
56514;BME280;62152;52.078;8.414;2022-11-15T04:49:57;99454.50;;;18.60;56.41
56514;BME280;62152;52.078;8.414;2022-11-15T04:51:38;99456.06;;;18.61;56.33
56514;BME280;62152;52.078;8.414;2022-11-15T04:53:22;99459.59;;;18.62;56.49
56514;BME280;62152;52.078;8.414;2022-11-15T04:55:04;99453.69;;;18.59;56.50
56514;BME280;62152;52.078;8.414;2022-11-15T04:56:45;99458.38;;;18.59;56.61
56514;BME280;62152;52.078;8.414;2022-11-15T04:58:25;99462.31;;;18.58;56.57
56514;BME280;62152;52.078;8.414;2022-11-15T05:00:09;99460.75;;;18.57;56.50
56514;BME280;62152;52.078;8.414;2022-11-15T05:01:50;99454.06;;;18.58;56.38
56514;BME280;62152;52.078;8.414;2022-11-15T05:03:31;99453.28;;;18.57;56.37
56514;BME280;62152;52.078;8.414;2022-11-15T05:05:12;99459.56;;;18.54;56.17
56514;BME280;62152;52.078;8.414;2022-11-15T05:06:53;99446.59;;;18.51;56.28
56514;BME280;62152;52.078;8.414;2022-11-15T05:08:37;99457.22;;;18.53;56.21
56514;BME280;62152;52.078;8.414;2022-11-15T05:10:18;99448.16;;;18.52;56.15
56514;BME280;62152;52.078;8.414;2022-11-15T05:11:59;99455.25;;;18.53;56.02
56514;BME280;62152;52.078;8.414;2022-11-15T05:13:39;99454.84;;;18.55;55.53
56514;BME280;62152;52.078;8.414;2022-11-15T05:15:20;99452.50;;;18.57;55.57
56514;BME280;62152;52.078;8.414;2022-11-15T05:17:01;99455.63;;;18.59;55.79
56514;BME280;62152;52.078;8.414;2022-11-15T05:18:42;99463.09;;;18.58;55.72
56514;BME280;62152;52.078;8.414;2022-11-15T05:20:23;99460.75;;;18.57;55.79
56514;BME280;62152;52.078;8.414;2022-11-15T05:22:04;99454.84;;;18.55;55.58
56514;BME280;62152;52.078;8.414;2022-11-15T05:23:48;99453.69;;;18.56;55.76
56514;BME280;62152;52.078;8.414;2022-11-15T05:25:28;99457.22;;;18.56;55.84
56514;BME280;62152;52.078;8.414;2022-11-15T05:27:09;99458.38;;;18.55;55.75
56514;BME280;62152;52.078;8.414;2022-11-15T05:28:52;99454.47;;;18.53;55.88
56514;BME280;62152;52.078;8.414;2022-11-15T05:30:34;99452.88;;;18.52;55.88
56514;BME280;62152;52.078;8.414;2022-11-15T05:32:16;99456.78;;;18.51;55.86
56514;BME280;62152;52.078;8.414;2022-11-15T05:34:01;99449.72;;;18.50;56.03
56514;BME280;62152;52.078;8.414;2022-11-15T05:35:50;99446.97;;;18.50;55.86
56514;BME280;62152;52.078;8.414;2022-11-15T05:37:38;99449.72;;;18.50;55.87
56514;BME280;62152;52.078;8.414;2022-11-15T05:39:21;99453.66;;;18.49;56.06
56514;BME280;62152;52.078;8.414;2022-11-15T05:41:03;99450.13;;;18.48;55.90
56514;BME280;62152;52.078;8.414;2022-11-15T05:42:46;99452.88;;;18.48;55.83
56514;BME280;62152;52.078;8.414;2022-11-15T05:44:28;99452.09;;;18.48;56.03
56514;BME280;62152;52.078;8.414;2022-11-15T05:46:13;99454.03;;;18.47;56.05
56514;BME280;62152;52.078;8.414;2022-11-15T05:47:57;99457.56;;;18.48;55.99
56514;BME280;62152;52.078;8.414;2022-11-15T05:49:44;99450.50;;;18.47;55.90
56514;BME280;62152;52.078;8.414;2022-11-15T05:51:29;99452.09;;;18.48;56.00
56514;BME280;62152;52.078;8.414;2022-11-15T05:53:14;99445.03;;;18.47;55.85
56514;BME280;62152;52.078;8.414;2022-11-15T05:55:03;99449.72;;;18.46;55.94
56514;BME280;62152;52.078;8.414;2022-11-15T05:56:49;99448.56;;;18.47;55.87
56514;BME280;62152;52.078;8.414;2022-11-15T05:58:31;99446.97;;;18.46;55.77
56514;BME280;62152;52.078;8.414;2022-11-15T06:00:13;99454.41;;;18.46;55.83
56514;BME280;62152;52.078;8.414;2022-11-15T06:01:54;99449.72;;;18.46;55.94
56514;BME280;62152;52.078;8.414;2022-11-15T06:03:35;99439.91;;;18.45;55.86
56514;BME280;62152;52.078;8.414;2022-11-15T06:05:16;99444.59;;;18.45;55.88
56514;BME280;62152;52.078;8.414;2022-11-15T06:06:58;99446.16;;;18.46;56.04
56514;BME280;62152;52.078;8.414;2022-11-15T06:08:39;99450.09;;;18.45;56.06
56514;BME280;62152;52.078;8.414;2022-11-15T06:10:23;99448.13;;;18.45;56.12
56514;BME280;62152;52.078;8.414;2022-11-15T06:12:04;99447.34;;;18.45;55.74
56514;BME280;62152;52.078;8.414;2022-11-15T06:13:45;99447.34;;;18.45;55.99
56514;BME280;62152;52.078;8.414;2022-11-15T06:15:27;99445.38;;;18.45;56.08
56514;BME280;62152;52.078;8.414;2022-11-15T06:17:08;99447.34;;;18.45;55.93
56514;BME280;62152;52.078;8.414;2022-11-15T06:18:49;99434.78;;;18.44;56.00
56514;BME280;62152;52.078;8.414;2022-11-15T06:20:30;99437.53;;;18.44;56.00
56514;BME280;62152;52.078;8.414;2022-11-15T06:22:11;99438.31;;;18.44;56.00
56514;BME280;62152;52.078;8.414;2022-11-15T06:23:52;99444.59;;;18.45;56.01
56514;BME280;62152;52.078;8.414;2022-11-15T06:25:36;99446.56;;;18.44;55.99
56514;BME280;62152;52.078;8.414;2022-11-15T06:27:17;99454.00;;;18.44;55.99
56514;BME280;62152;52.078;8.414;2022-11-15T06:28:58;99452.06;;;18.44;55.92
56514;BME280;62152;52.078;8.414;2022-11-15T06:30:39;99451.28;;;18.44;56.01
56514;BME280;62152;52.078;8.414;2022-11-15T06:32:20;99445.78;;;18.44;55.83
56514;BME280;62152;52.078;8.414;2022-11-15T06:34:01;99449.31;;;18.44;55.79
56514;BME280;62152;52.078;8.414;2022-11-15T06:35:42;99455.97;;;18.43;55.75
56514;BME280;62152;52.078;8.414;2022-11-15T06:37:22;99458.72;;;18.43;55.93
56514;BME280;62152;52.078;8.414;2022-11-15T06:39:04;99456.75;;;18.44;55.87
56514;BME280;62152;52.078;8.414;2022-11-15T06:40:48;99456.75;;;18.44;56.03
56514;BME280;62152;52.078;8.414;2022-11-15T06:42:29;99458.72;;;18.43;55.91
56514;BME280;62152;52.078;8.414;2022-11-15T06:44:10;99462.25;;;18.44;55.94
56514;BME280;62152;52.078;8.414;2022-11-15T06:45:51;99463.44;;;18.43;55.97
56514;BME280;62152;52.078;8.414;2022-11-15T06:47:32;99457.16;;;18.42;55.81
56514;BME280;62152;52.078;8.414;2022-11-15T06:49:13;99460.69;;;18.43;55.96
56514;BME280;62152;52.078;8.414;2022-11-15T06:50:55;99459.91;;;18.42;55.88
56514;BME280;62152;52.078;8.414;2022-11-15T06:52:37;99460.69;;;18.43;55.88
56514;BME280;62152;52.078;8.414;2022-11-15T06:54:18;99458.72;;;18.43;56.03
56514;BME280;62152;52.078;8.414;2022-11-15T06:56:04;99459.50;;;18.44;55.69
56514;BME280;62152;52.078;8.414;2022-11-15T06:57:48;99468.53;;;18.44;55.74
56514;BME280;62152;52.078;8.414;2022-11-15T06:59:29;99457.53;;;18.44;55.70
56514;BME280;62152;52.078;8.414;2022-11-15T07:01:12;99468.91;;;18.43;55.85
56514;BME280;62152;52.078;8.414;2022-11-15T07:02:53;99465.38;;;18.42;56.00
56514;BME280;62152;52.078;8.414;2022-11-15T07:04:34;99474.03;;;18.44;55.74
56514;BME280;62152;52.078;8.414;2022-11-15T07:06:15;99468.91;;;18.43;55.91
56514;BME280;62152;52.078;8.414;2022-11-15T07:07:57;99474.41;;;18.43;55.70
56514;BME280;62152;52.078;8.414;2022-11-15T07:09:38;99477.94;;;18.43;55.75
56514;BME280;62152;52.078;8.414;2022-11-15T07:11:22;99481.47;;;18.44;55.73
56514;BME280;62152;52.078;8.414;2022-11-15T07:13:03;99471.66;;;18.43;55.69
56514;BME280;62152;52.078;8.414;2022-11-15T07:14:44;99470.09;;;18.42;55.80
56514;BME280;62152;52.078;8.414;2022-11-15T07:16:25;99474.03;;;18.41;55.78
56514;BME280;62152;52.078;8.414;2022-11-15T07:18:06;99479.50;;;18.41;55.88
56514;BME280;62152;52.078;8.414;2022-11-15T07:19:47;99480.28;;;18.41;55.95
56514;BME280;62152;52.078;8.414;2022-11-15T07:21:27;99479.50;;;18.41;55.81
56514;BME280;62152;52.078;8.414;2022-11-15T07:23:08;99473.63;;;18.42;55.77
56514;BME280;62152;52.078;8.414;2022-11-15T07:24:49;99472.84;;;18.42;55.78
56514;BME280;62152;52.078;8.414;2022-11-15T07:26:33;99492.06;;;18.42;55.84
56514;BME280;62152;52.078;8.414;2022-11-15T07:28:14;99492.06;;;18.42;55.89
56514;BME280;62152;52.078;8.414;2022-11-15T07:29:55;99481.88;;;18.42;55.68
56514;BME280;62152;52.078;8.414;2022-11-15T07:31:35;99482.66;;;18.43;55.65
56514;BME280;62152;52.078;8.414;2022-11-15T07:33:16;99489.31;;;18.42;55.72
56514;BME280;62152;52.078;8.414;2022-11-15T07:34:57;99485.00;;;18.41;55.93
56514;BME280;62152;52.078;8.414;2022-11-15T07:36:38;99486.97;;;18.40;55.74
56514;BME280;62152;52.078;8.414;2022-11-15T07:38:19;99486.56;;;18.42;55.86
56514;BME280;62152;52.078;8.414;2022-11-15T07:40:00;99495.97;;;18.41;55.88
56514;BME280;62152;52.078;8.414;2022-11-15T07:41:43;99488.91;;;18.40;55.86
56514;BME280;62152;52.078;8.414;2022-11-15T07:43:24;99491.28;;;18.41;55.83
56514;BME280;62152;52.078;8.414;2022-11-15T07:45:06;99493.25;;;18.41;55.70
56514;BME280;62152;52.078;8.414;2022-11-15T07:46:48;99493.25;;;18.41;55.74
56514;BME280;62152;52.078;8.414;2022-11-15T07:48:29;99494.41;;;18.40;55.80
56514;BME280;62152;52.078;8.414;2022-11-15T07:50:10;99500.31;;;18.42;55.94
56514;BME280;62152;52.078;8.414;2022-11-15T07:51:51;99495.97;;;18.41;55.74
56514;BME280;62152;52.078;8.414;2022-11-15T07:53:32;99495.19;;;18.40;55.81
56514;BME280;62152;52.078;8.414;2022-11-15T07:55:13;99492.44;;;18.40;55.72
56514;BME280;62152;52.078;8.414;2022-11-15T07:56:57;99492.81;;;18.39;55.76
56514;BME280;62152;52.078;8.414;2022-11-15T07:58:38;99491.66;;;18.40;55.80
56514;BME280;62152;52.078;8.414;2022-11-15T08:00:19;99496.78;;;18.41;55.73
56514;BME280;62152;52.078;8.414;2022-11-15T08:02:00;99488.91;;;18.40;55.65
56514;BME280;62152;52.078;8.414;2022-11-15T08:03:41;99493.63;;;18.39;55.69
56514;BME280;62152;52.078;8.414;2022-11-15T08:05:22;99501.06;;;18.39;55.91
56514;BME280;62152;52.078;8.414;2022-11-15T08:07:03;99493.63;;;18.39;55.89
56514;BME280;62152;52.078;8.414;2022-11-15T08:08:44;99493.63;;;18.39;55.68
56514;BME280;62152;52.078;8.414;2022-11-15T08:10:28;99481.84;;;18.39;55.85
56514;BME280;62152;52.078;8.414;2022-11-15T08:12:11;99491.66;;;18.40;55.83
56514;BME280;62152;52.078;8.414;2022-11-15T08:13:52;99488.91;;;18.40;55.89
56514;BME280;62152;52.078;8.414;2022-11-15T08:15:35;99483.44;;;18.40;55.65
56514;BME280;62152;52.078;8.414;2022-11-15T08:17:16;99483.44;;;18.40;55.68
56514;BME280;62152;52.078;8.414;2022-11-15T08:18:57;99481.47;;;18.40;55.59
56514;BME280;62152;52.078;8.414;2022-11-15T08:20:38;99481.84;;;18.39;55.57
56514;BME280;62152;52.078;8.414;2022-11-15T08:22:19;99477.16;;;18.39;55.66
56514;BME280;62152;52.078;8.414;2022-11-15T08:24:00;99465.34;;;18.39;55.63
56514;BME280;62152;52.078;8.414;2022-11-15T08:25:41;99475.56;;;18.38;55.68
56514;BME280;62152;52.078;8.414;2022-11-15T08:27:25;99472.44;;;18.40;55.73
56514;BME280;62152;52.078;8.414;2022-11-15T08:29:06;99470.50;;;18.40;55.85
56514;BME280;62152;52.078;8.414;2022-11-15T08:30:47;99468.09;;;18.39;55.82
56514;BME280;62152;52.078;8.414;2022-11-15T08:32:28;99467.75;;;18.40;55.78
56514;BME280;62152;52.078;8.414;2022-11-15T08:34:11;99469.69;;;18.40;55.58
56514;BME280;62152;52.078;8.414;2022-11-15T08:35:52;99467.75;;;18.40;55.56
56514;BME280;62152;52.078;8.414;2022-11-15T08:37:32;99472.44;;;18.40;55.81
56514;BME280;62152;52.078;8.414;2022-11-15T08:39:13;99470.84;;;18.39;55.61
56514;BME280;62152;52.078;8.414;2022-11-15T08:41:00;99474.81;;;18.41;55.85
56514;BME280;62152;52.078;8.414;2022-11-15T08:42:48;99479.09;;;18.39;55.80
56514;BME280;62152;52.078;8.414;2022-11-15T08:44:29;99476.34;;;18.39;55.73
56514;BME280;62152;52.078;8.414;2022-11-15T08:46:13;99475.19;;;18.40;55.70
56514;BME280;62152;52.078;8.414;2022-11-15T08:47:54;99471.66;;;18.39;55.74
56514;BME280;62152;52.078;8.414;2022-11-15T08:49:35;99470.84;;;18.39;55.66
56514;BME280;62152;52.078;8.414;2022-11-15T08:51:16;99475.19;;;18.40;55.65
56514;BME280;62152;52.078;8.414;2022-11-15T08:52:57;99475.19;;;18.40;55.75
56514;BME280;62152;52.078;8.414;2022-11-15T08:54:38;99476.34;;;18.39;55.76
56514;BME280;62152;52.078;8.414;2022-11-15T08:56:19;99466.97;;;18.40;55.54
56514;BME280;62152;52.078;8.414;2022-11-15T08:58:02;99468.91;;;18.39;55.65
56514;BME280;62152;52.078;8.414;2022-11-15T08:59:44;99479.09;;;18.39;55.61
56514;BME280;62152;52.078;8.414;2022-11-15T09:01:25;99474.41;;;18.39;55.63
56514;BME280;62152;52.078;8.414;2022-11-15T09:03:07;99475.19;;;18.40;55.64
56514;BME280;62152;52.078;8.414;2022-11-15T09:04:47;99477.16;;;18.39;55.72
56514;BME280;62152;52.078;8.414;2022-11-15T09:06:28;99475.19;;;18.40;55.58
56514;BME280;62152;52.078;8.414;2022-11-15T09:08:09;99485.38;;;18.39;55.75
56514;BME280;62152;52.078;8.414;2022-11-15T09:09:50;99470.84;;;18.39;55.59
56514;BME280;62152;52.078;8.414;2022-11-15T09:11:32;99472.44;;;18.40;55.83
56514;BME280;62152;52.078;8.414;2022-11-15T09:13:15;99473.59;;;18.39;55.51
56514;BME280;62152;52.078;8.414;2022-11-15T09:14:56;99472.81;;;18.38;55.58